Time;durP1;ratioP1;P1;durP2;ratioP2;P2;SDS_P1;SDS_P2;PMS_P1;PMS_P2;Temp;Humidity;BMP_temperature;BMP_pressure;BME280_temperature;BME280_humidity;BME280_pressure;Samples;Min_cycle;Max_cycle;Signal;HPM_P1;HPM_P2
2023/11/20 00:01:03;;;;;;;1.40;1.00;;;10.10;99.90;;;;;;4871981;29;20032;-84
2023/11/20 00:03:28;;;;;;;2.50;0.73;;;10.10;99.90;;;;;;4871595;29;20504;-84
2023/11/20 00:05:54;;;;;;;2.93;0.90;;;10.00;99.90;;;;;;4871295;29;20085;-84
2023/11/20 00:08:19;;;;;;;3.20;0.90;;;10.00;99.90;;;;;;4872495;29;20933;-83
2023/11/20 00:10:46;;;;;;;1.10;0.80;;;10.00;99.90;;;;;;4872948;29;20088;-83
2023/11/20 00:13:11;;;;;;;1.97;0.93;;;10.00;99.90;;;;;;4872359;29;20099;-83
2023/11/20 00:15:37;;;;;;;1.13;0.80;;;10.00;99.90;;;;;;4875316;29;20029;-84
2023/11/20 00:18:04;;;;;;;1.27;0.90;;;9.90;99.90;;;;;;4872341;29;20488;-84
2023/11/20 00:20:31;;;;;;;1.20;0.97;;;9.90;99.90;;;;;;4874508;29;20608;-85
2023/11/20 00:22:57;;;;;;;2.40;1.03;;;9.80;99.90;;;;;;4874064;29;20021;-84
2023/11/20 00:25:22;;;;;;;1.80;0.90;;;9.70;99.90;;;;;;4873260;29;20033;-84
2023/11/20 00:27:48;;;;;;;3.20;1.10;;;9.60;99.90;;;;;;4873836;29;20036;-84
2023/11/20 00:30:13;;;;;;;1.10;0.80;;;9.50;99.90;;;;;;4874738;29;20041;-84
2023/11/20 00:32:39;;;;;;;2.77;0.90;;;9.40;99.90;;;;;;4875320;29;20124;-84
2023/11/20 00:35:04;;;;;;;1.57;0.73;;;9.30;99.90;;;;;;4874753;29;20040;-83
2023/11/20 00:37:30;;;;;;;4.60;1.50;;;9.30;99.90;;;;;;4875204;29;20053;-84
2023/11/20 00:39:55;;;;;;;4.57;1.87;;;9.20;99.90;;;;;;4876298;29;20585;-83
2023/11/20 00:42:21;;;;;;;2.20;1.30;;;9.10;99.90;;;;;;4877243;29;20027;-84
2023/11/20 00:44:46;;;;;;;2.17;1.43;;;8.90;99.90;;;;;;4877712;29;20041;-85
2023/11/20 00:47:12;;;;;;;2.93;1.70;;;8.80;99.90;;;;;;4873808;29;20512;-83
2023/11/20 00:49:38;;;;;;;4.60;1.30;;;8.70;99.90;;;;;;4874197;29;20121;-85
2023/11/20 00:52:03;;;;;;;3.37;1.37;;;8.60;99.90;;;;;;4874685;29;20032;-83
2023/11/20 00:54:29;;;;;;;3.20;1.60;;;8.60;99.90;;;;;;4874440;29;20064;-84
2023/11/20 00:56:55;;;;;;;2.10;1.00;;;8.50;99.90;;;;;;4873910;29;20100;-84
2023/11/20 00:59:21;;;;;;;1.27;0.90;;;8.50;99.90;;;;;;4873251;29;20421;-83
2023/11/20 01:01:46;;;;;;;1.83;1.00;;;8.40;99.90;;;;;;4874259;29;20040;-83
2023/11/20 01:04:12;;;;;;;1.70;1.00;;;8.40;99.90;;;;;;4874386;29;21213;-84
2023/11/20 01:06:41;;;;;;;2.10;1.10;;;8.40;99.90;;;;;;4873925;29;20029;-83
2023/11/20 01:09:08;;;;;;;3.50;1.10;;;8.40;99.90;;;;;;4874377;29;20040;-84
2023/11/20 01:11:34;;;;;;;1.90;1.10;;;8.30;99.90;;;;;;4873507;29;20119;-84
2023/11/20 01:14:01;;;;;;;4.50;1.20;;;8.30;99.90;;;;;;4872343;29;20037;-84
2023/11/20 01:16:27;;;;;;;1.57;0.97;;;8.30;99.90;;;;;;4872652;29;20045;-84
2023/11/20 01:18:53;;;;;;;1.93;1.13;;;8.30;99.90;;;;;;4872994;29;20036;-84
2023/11/20 01:21:19;;;;;;;2.13;1.03;;;8.30;99.90;;;;;;4873162;29;20044;-84
2023/11/20 01:23:45;;;;;;;1.77;0.97;;;8.40;99.90;;;;;;4873375;29;20037;-84
2023/11/20 01:26:11;;;;;;;2.10;1.20;;;8.40;99.90;;;;;;4870981;29;20568;-83
2023/11/20 01:28:36;;;;;;;1.50;0.80;;;8.40;99.90;;;;;;4873300;29;20032;-84
2023/11/20 01:31:02;;;;;;;1.10;0.90;;;8.40;99.90;;;;;;4874609;29;20029;-84
2023/11/20 01:33:27;;;;;;;1.27;0.80;;;8.40;99.90;;;;;;4876339;29;20140;-84
2023/11/20 01:35:53;;;;;;;2.03;1.10;;;8.50;99.90;;;;;;4874606;29;20053;-84
2023/11/20 01:38:18;;;;;;;1.23;1.03;;;8.50;99.90;;;;;;4874872;29;20097;-84
2023/11/20 01:40:44;;;;;;;2.33;1.00;;;8.50;99.90;;;;;;4874166;29;20073;-84
2023/11/20 01:43:11;;;;;;;1.90;1.10;;;8.50;99.90;;;;;;4873274;29;20758;-86
2023/11/20 01:45:36;;;;;;;1.63;0.80;;;8.50;99.90;;;;;;4872648;29;20116;-84
2023/11/20 01:48:02;;;;;;;2.50;1.00;;;8.50;99.90;;;;;;4872360;29;20505;-84
2023/11/20 01:50:32;;;;;;;2.47;1.10;;;8.50;99.90;;;;;;4873051;29;20056;-84
2023/11/20 01:52:58;;;;;;;2.00;1.43;;;8.50;99.90;;;;;;4875239;29;20033;-84
2023/11/20 01:55:24;;;;;;;2.47;0.93;;;8.50;99.90;;;;;;4873983;29;20033;-84
2023/11/20 01:57:51;;;;;;;1.27;0.97;;;8.50;99.90;;;;;;4874557;29;20041;-84
2023/11/20 02:00:18;;;;;;;3.07;1.20;;;8.40;99.90;;;;;;4874231;29;20029;-83
2023/11/20 02:02:44;;;;;;;2.87;1.10;;;8.40;99.90;;;;;;4875153;29;20033;-84
2023/11/20 02:05:10;;;;;;;1.90;0.90;;;8.30;99.90;;;;;;4873823;29;20040;-84
2023/11/20 02:07:36;;;;;;;4.43;1.10;;;8.30;99.90;;;;;;4874080;29;20047;-84
2023/11/20 02:10:03;;;;;;;2.43;1.10;;;8.30;99.90;;;;;;4875325;29;21439;-84
2023/11/20 02:12:29;;;;;;;2.47;1.17;;;8.20;99.90;;;;;;4875044;29;20033;-84
2023/11/20 02:14:55;;;;;;;2.67;0.90;;;8.20;99.90;;;;;;4874285;29;20037;-84
2023/11/20 02:17:21;;;;;;;2.33;1.00;;;8.20;99.90;;;;;;4873509;29;20485;-83
2023/11/20 02:19:50;;;;;;;1.93;1.10;;;8.10;99.90;;;;;;4874329;29;20101;-84
2023/11/20 02:22:16;;;;;;;3.17;1.00;;;8.10;99.90;;;;;;4874520;29;20029;-83
2023/11/20 02:24:43;;;;;;;2.63;1.10;;;8.10;99.90;;;;;;4873490;29;20052;-83
2023/11/20 02:27:33;;;;;;;1.90;1.30;;;8.10;99.90;;;;;;4874571;29;20045;-84
2023/11/20 02:30:01;;;;;;;1.70;0.90;;;8.10;99.90;;;;;;4873934;29;20084;-83
2023/11/20 02:32:28;;;;;;;5.27;1.20;;;8.10;99.90;;;;;;4874532;29;20090;-84
2023/11/20 02:34:54;;;;;;;2.03;1.17;;;8.20;99.90;;;;;;4874944;29;20033;-83
2023/11/20 02:37:19;;;;;;;4.07;1.10;;;8.30;99.90;;;;;;4883116;29;20056;-84
2023/11/20 02:39:51;;;;;;;1.70;0.90;;;8.20;99.90;;;;;;4881803;29;20040;-83
2023/11/20 02:42:18;;;;;;;2.20;1.03;;;8.30;99.90;;;;;;4873659;29;20036;-83
2023/11/20 02:44:45;;;;;;;2.73;1.10;;;8.20;99.90;;;;;;4871596;29;20128;-84
2023/11/20 02:47:11;;;;;;;2.40;0.90;;;8.30;99.90;;;;;;4872759;29;20063;-83
2023/11/20 02:49:37;;;;;;;1.80;1.17;;;8.20;99.90;;;;;;4874037;29;20497;-83
2023/11/20 02:52:04;;;;;;;1.77;0.80;;;8.30;99.90;;;;;;4873573;29;20033;-83
2023/11/20 02:54:30;;;;;;;2.17;0.90;;;8.30;99.90;;;;;;4872773;29;20026;-83
2023/11/20 02:56:56;;;;;;;3.20;0.90;;;8.40;99.90;;;;;;4873531;29;20088;-83
2023/11/20 02:59:22;;;;;;;1.93;1.07;;;8.40;99.90;;;;;;4873250;29;20048;-83
2023/11/20 03:01:48;;;;;;;4.67;1.40;;;8.40;99.90;;;;;;4874633;29;20100;-83
2023/11/20 03:04:18;;;;;;;2.30;1.03;;;8.50;99.90;;;;;;4874565;29;20041;-83
2023/11/20 03:06:44;;;;;;;2.23;1.00;;;8.50;99.90;;;;;;4874685;29;20663;-83
2023/11/20 03:09:10;;;;;;;2.37;1.23;;;8.50;99.90;;;;;;4876885;29;20044;-83
2023/11/20 03:11:35;;;;;;;2.97;0.87;;;8.60;99.90;;;;;;4879708;29;20500;-83
2023/11/20 03:14:01;;;;;;;3.60;1.10;;;8.60;99.90;;;;;;4880387;29;20518;-84
2023/11/20 03:16:27;;;;;;;3.13;0.80;;;8.60;99.90;;;;;;4879673;29;20667;-84
2023/11/20 03:18:53;;;;;;;1.60;0.97;;;8.60;99.90;;;;;;4879087;29;20033;-83
2023/11/20 03:21:18;;;;;;;3.47;1.00;;;8.70;99.90;;;;;;4879681;29;20040;-84
2023/11/20 03:23:44;;;;;;;2.87;0.90;;;8.70;99.90;;;;;;4879260;29;20041;-84
2023/11/20 03:26:09;;;;;;;3.30;1.20;;;8.70;99.90;;;;;;4878450;29;20017;-83
2023/11/20 03:28:38;;;;;;;2.60;1.07;;;8.70;99.90;;;;;;4880368;29;21626;-84
2023/11/20 03:31:03;;;;;;;2.87;1.23;;;8.70;99.90;;;;;;4880820;29;20036;-84
2023/11/20 03:33:29;;;;;;;2.50;1.03;;;8.70;99.90;;;;;;4879054;29;20032;-84
2023/11/20 03:35:54;;;;;;;3.87;1.07;;;8.80;99.90;;;;;;4878898;29;20064;-83
2023/11/20 03:38:20;;;;;;;2.33;0.97;;;8.80;99.90;;;;;;4878699;29;20059;-83
2023/11/20 03:40:46;;;;;;;3.73;1.10;;;8.80;99.90;;;;;;4878736;29;20032;-84
2023/11/20 03:43:12;;;;;;;3.23;1.13;;;9.00;99.90;;;;;;4878637;29;21531;-83
2023/11/20 03:45:38;;;;;;;1.80;0.90;;;9.10;99.90;;;;;;4878409;29;20124;-84
2023/11/20 03:48:04;;;;;;;2.27;0.90;;;9.10;99.90;;;;;;4878199;29;20025;-84
2023/11/20 03:50:29;;;;;;;2.03;0.90;;;9.10;99.90;;;;;;4878451;29;20580;-84
2023/11/20 03:52:55;;;;;;;3.17;0.80;;;9.10;99.90;;;;;;4878339;29;20073;-83
2023/11/20 03:55:20;;;;;;;2.80;1.10;;;9.10;99.90;;;;;;4877414;29;20100;-84
2023/11/20 03:57:46;;;;;;;2.87;0.83;;;9.10;99.90;;;;;;4877975;29;20512;-84
2023/11/20 04:00:13;;;;;;;1.47;1.00;;;9.10;99.90;;;;;;4878252;29;20044;-84
2023/11/20 04:02:41;;;;;;;4.83;0.97;;;9.10;99.90;;;;;;4878443;29;20044;-83
2023/11/20 04:05:07;;;;;;;2.20;1.03;;;9.20;99.90;;;;;;4881346;29;20515;-84
2023/11/20 04:07:32;;;;;;;4.10;1.10;;;9.20;99.90;;;;;;4877275;29;20029;-84
2023/11/20 04:09:58;;;;;;;2.83;1.03;;;9.30;99.90;;;;;;4875982;29;20029;-83
2023/11/20 04:12:25;;;;;;;3.63;1.20;;;9.30;99.90;;;;;;4876576;29;20025;-83
2023/11/20 04:14:51;;;;;;;1.93;1.00;;;9.30;99.90;;;;;;4879252;29;20025;-84
2023/11/20 04:17:16;;;;;;;2.20;0.97;;;9.40;99.90;;;;;;4879220;29;20032;-83
2023/11/20 04:19:42;;;;;;;4.83;1.10;;;9.40;99.90;;;;;;4875711;29;20037;-83
2023/11/20 04:22:07;;;;;;;5.83;1.00;;;9.50;99.90;;;;;;4874802;29;20033;-83
2023/11/20 04:24:33;;;;;;;2.00;1.20;;;9.40;99.90;;;;;;4873322;29;20132;-84
2023/11/20 04:26:59;;;;;;;3.00;1.10;;;9.40;99.90;;;;;;4874236;29;20044;-83
2023/11/20 04:29:25;;;;;;;2.77;1.23;;;9.40;99.90;;;;;;4873760;29;20045;-83
2023/11/20 04:31:51;;;;;;;3.00;1.10;;;9.30;99.90;;;;;;4874655;29;20128;-84
2023/11/20 04:34:17;;;;;;;5.10;0.90;;;9.30;99.90;;;;;;4875425;29;20101;-84
2023/11/20 04:36:42;;;;;;;3.60;1.20;;;9.30;99.90;;;;;;4874127;29;20057;-84
2023/11/20 04:39:08;;;;;;;3.30;1.30;;;9.30;99.90;;;;;;4876300;29;20033;-84
2023/11/20 04:41:33;;;;;;;5.80;1.07;;;9.30;99.90;;;;;;4876002;29;20029;-84
2023/11/20 04:43:59;;;;;;;3.40;1.40;;;9.30;99.90;;;;;;4876578;29;20512;-83
2023/11/20 04:46:25;;;;;;;4.97;1.10;;;9.30;99.90;;;;;;4875086;29;21079;-84
2023/11/20 04:48:50;;;;;;;3.67;1.10;;;9.30;99.90;;;;;;4874328;29;20077;-84
2023/11/20 04:51:20;;;;;;;3.07;0.90;;;9.30;99.90;;;;;;4874020;29;20036;-83
2023/11/20 04:53:46;;;;;;;3.43;1.00;;;9.30;99.90;;;;;;4874951;29;20052;-84
2023/11/20 04:56:11;;;;;;;3.67;1.50;;;9.40;99.90;;;;;;4874639;29;20128;-83
2023/11/20 04:58:37;;;;;;;3.43;1.00;;;9.40;99.90;;;;;;4875036;29;20041;-83
2023/11/20 05:01:05;;;;;;;7.63;1.10;;;9.60;99.90;;;;;;4873830;29;20045;-83
2023/11/20 05:03:30;;;;;;;5.90;1.33;;;9.60;99.90;;;;;;4874896;29;20485;-83
2023/11/20 05:05:56;;;;;;;6.73;1.20;;;9.80;99.90;;;;;;4872449;29;20040;-84
2023/11/20 05:08:22;;;;;;;4.07;1.13;;;9.80;99.90;;;;;;4873495;29;20025;-83
2023/11/20 05:10:47;;;;;;;6.97;1.50;;;9.80;99.90;;;;;;4874390;29;20052;-83
2023/11/20 05:13:16;;;;;;;2.03;1.07;;;9.70;99.90;;;;;;4869127;29;20082;-77
2023/11/20 05:15:42;;;;;;;3.03;1.20;;;9.70;99.90;;;;;;4867245;29;20025;-78
2023/11/20 05:18:08;;;;;;;3.50;1.00;;;9.70;99.90;;;;;;4867470;29;20052;-77
2023/11/20 05:20:33;;;;;;;5.20;2.03;;;9.60;99.90;;;;;;4867419;29;20100;-77
2023/11/20 05:22:59;;;;;;;2.90;0.80;;;9.50;99.90;;;;;;4868952;29;20524;-79
2023/11/20 05:25:25;;;;;;;4.00;1.03;;;9.50;99.90;;;;;;4865617;29;20124;-76
2023/11/20 05:27:51;;;;;;;2.57;0.97;;;9.40;99.90;;;;;;4866233;29;20176;-76
2023/11/20 05:30:16;;;;;;;3.20;1.30;;;9.40;99.90;;;;;;4866727;29;20043;-76
2023/11/20 05:32:42;;;;;;;4.27;1.23;;;9.40;99.90;;;;;;4867387;29;20065;-76
2023/11/20 05:35:08;;;;;;;5.13;1.40;;;9.40;99.90;;;;;;4866873;29;20033;-76
2023/11/20 05:37:34;;;;;;;7.30;1.53;;;9.40;99.90;;;;;;4866159;29;20148;-77
2023/11/20 05:39:59;;;;;;;6.17;1.93;;;9.30;99.90;;;;;;4867386;29;20053;-77
2023/11/20 05:42:25;;;;;;;4.87;1.33;;;9.30;99.90;;;;;;4867009;29;20548;-76
2023/11/20 05:44:50;;;;;;;6.93;1.57;;;9.30;99.90;;;;;;4867351;29;20104;-76
2023/11/20 05:47:16;;;;;;;4.23;1.27;;;9.30;99.90;;;;;;4866990;29;20025;-76
2023/11/20 05:49:41;;;;;;;7.17;2.20;;;9.40;99.90;;;;;;4866683;29;20044;-76
2023/11/20 05:52:07;;;;;;;3.47;1.07;;;9.30;99.90;;;;;;4868494;29;20074;-76
2023/11/20 05:54:32;;;;;;;5.70;1.23;;;9.30;99.90;;;;;;4865915;29;20033;-76
2023/11/20 05:57:00;;;;;;;4.03;1.00;;;9.30;99.90;;;;;;4866401;29;20055;-78
2023/11/20 05:59:25;;;;;;;3.67;1.30;;;9.30;99.90;;;;;;4867119;29;20033;-77
2023/11/20 06:01:51;;;;;;;3.57;1.23;;;9.30;99.90;;;;;;4865571;29;20048;-77
2023/11/20 06:04:16;;;;;;;5.53;1.50;;;9.20;99.90;;;;;;4865455;29;20627;-77
2023/11/20 06:06:42;;;;;;;5.30;1.20;;;9.20;99.90;;;;;;4864698;29;20033;-77
2023/11/20 06:09:10;;;;;;;4.50;1.10;;;9.20;99.90;;;;;;4866307;29;20424;-77
2023/11/20 06:11:36;;;;;;;2.30;1.10;;;9.20;99.90;;;;;;4865676;29;20029;-77
2023/11/20 06:14:02;;;;;;;4.87;1.80;;;9.20;99.90;;;;;;4865476;29;20044;-77
2023/11/20 06:16:28;;;;;;;4.87;1.20;;;9.10;99.90;;;;;;4863923;29;20032;-77
2023/11/20 06:18:54;;;;;;;4.67;1.30;;;9.10;99.90;;;;;;4864730;29;20037;-77
2023/11/20 06:21:20;;;;;;;7.43;1.37;;;9.10;99.90;;;;;;4865252;29;20057;-77
2023/11/20 06:23:46;;;;;;;5.47;1.03;;;9.10;99.90;;;;;;4865399;29;20131;-76
2023/11/20 06:26:12;;;;;;;4.00;1.20;;;9.10;99.90;;;;;;4864500;29;20025;-77
2023/11/20 06:28:40;;;;;;;5.53;1.33;;;9.10;99.90;;;;;;4864738;29;20079;-77
2023/11/20 06:31:06;;;;;;;6.00;1.50;;;9.10;99.90;;;;;;4864636;29;20025;-77
2023/11/20 06:33:32;;;;;;;4.67;1.30;;;9.00;99.90;;;;;;4864839;29;20032;-76
2023/11/20 06:35:57;;;;;;;4.27;1.20;;;9.00;99.90;;;;;;4863447;29;20037;-76
2023/11/20 06:38:23;;;;;;;5.13;1.10;;;9.00;99.90;;;;;;4864462;29;20093;-76
2023/11/20 06:40:48;;;;;;;2.73;1.43;;;8.90;99.90;;;;;;4862833;29;20044;-77
2023/11/20 06:43:14;;;;;;;6.33;1.40;;;8.90;99.90;;;;;;4861920;29;20036;-76
2023/11/20 06:45:39;;;;;;;6.33;1.30;;;8.90;99.90;;;;;;4863212;29;20045;-76
2023/11/20 06:48:06;;;;;;;3.23;1.20;;;8.90;99.90;;;;;;4862656;29;20422;-77
2023/11/20 06:50:32;;;;;;;6.77;1.43;;;8.90;99.90;;;;;;4862896;29;20048;-76
2023/11/20 06:52:58;;;;;;;2.73;1.07;;;8.90;99.90;;;;;;4864371;29;20037;-76
2023/11/20 06:55:24;;;;;;;5.33;1.83;;;9.00;99.90;;;;;;4864268;29;20029;-77
2023/11/20 06:57:50;;;;;;;3.93;1.73;;;8.90;99.90;;;;;;4864127;29;20029;-76
2023/11/20 07:00:16;;;;;;;4.27;1.13;;;8.90;99.90;;;;;;4863183;29;20040;-77
2023/11/20 07:02:42;;;;;;;4.80;1.33;;;9.00;99.90;;;;;;4863946;29;20084;-76
2023/11/20 07:05:08;;;;;;;4.87;1.50;;;9.00;99.90;;;;;;4864056;29;20057;-77
2023/11/20 07:07:40;;;;;;;4.30;1.60;;;9.00;99.90;;;;;;4867800;29;20033;-80
2023/11/20 07:10:11;;;;;;;7.20;1.37;;;9.00;99.90;;;;;;4859645;29;20032;-81
2023/11/20 07:12:38;;;;;;;6.67;1.30;;;9.00;99.90;;;;;;4861269;29;20116;-81
2023/11/20 07:15:07;;;;;;;3.57;1.20;;;9.00;99.90;;;;;;4861812;29;20093;-80
2023/11/20 07:17:33;;;;;;;6.17;1.17;;;9.00;99.90;;;;;;4861530;29;20037;-81
2023/11/20 07:19:58;;;;;;;3.77;1.20;;;9.00;99.90;;;;;;4860968;29;20099;-81
2023/11/20 07:22:27;;;;;;;3.63;1.30;;;9.00;99.90;;;;;;4863533;29;20473;-81
2023/11/20 07:24:52;;;;;;;4.53;1.37;;;9.00;99.90;;;;;;4862102;29;20488;-81
2023/11/20 07:27:18;;;;;;;4.47;1.37;;;9.00;99.90;;;;;;4863191;29;20112;-81
2023/11/20 07:29:44;;;;;;;7.07;1.50;;;9.00;99.90;;;;;;4861415;29;20077;-81
2023/11/20 07:32:10;;;;;;;7.53;1.50;;;9.00;99.90;;;;;;4861749;29;20032;-82
2023/11/20 07:34:36;;;;;;;4.27;1.60;;;9.00;99.90;;;;;;4858036;29;20041;-80
2023/11/20 07:37:01;;;;;;;3.80;1.50;;;9.10;99.90;;;;;;4858602;29;20128;-80
2023/11/20 07:39:27;;;;;;;4.33;1.30;;;9.10;99.90;;;;;;4857739;29;20037;-80
2023/11/20 07:41:53;;;;;;;3.33;1.00;;;9.10;99.90;;;;;;4858355;29;20093;-80
2023/11/20 07:44:19;;;;;;;5.70;1.30;;;9.20;99.90;;;;;;4858333;29;20049;-80
2023/11/20 07:46:44;;;;;;;5.40;1.40;;;9.20;99.90;;;;;;4857982;29;20037;-80
2023/11/20 07:49:10;;;;;;;4.23;1.27;;;9.20;99.90;;;;;;4859565;29;20047;-80
2023/11/20 07:51:35;;;;;;;4.13;1.10;;;9.20;99.90;;;;;;4858460;29;20029;-80
2023/11/20 07:54:01;;;;;;;5.60;1.80;;;9.30;99.90;;;;;;4857717;29;20155;-80
2023/11/20 07:56:27;;;;;;;4.50;1.47;;;9.30;99.90;;;;;;4858194;29;20149;-80
2023/11/20 07:58:53;;;;;;;5.63;1.30;;;9.30;99.90;;;;;;4863610;29;21019;-80
2023/11/20 08:01:19;;;;;;;5.53;1.20;;;9.30;99.90;;;;;;4860408;29;20616;-81
2023/11/20 08:03:44;;;;;;;4.43;1.50;;;9.40;99.90;;;;;;4859930;29;22009;-80
2023/11/20 08:06:10;;;;;;;5.00;1.57;;;9.40;99.90;;;;;;4858940;29;20092;-80
2023/11/20 08:08:35;;;;;;;3.50;1.20;;;9.40;99.90;;;;;;4865456;29;20041;-81
2023/11/20 08:11:01;;;;;;;6.37;1.23;;;9.40;99.90;;;;;;4867169;29;20040;-81
2023/11/20 08:13:27;;;;;;;7.47;1.43;;;9.40;99.90;;;;;;4868832;29;20032;-82
2023/11/20 08:15:53;;;;;;;6.87;1.77;;;9.40;99.90;;;;;;4862604;29;20064;-82
2023/11/20 08:18:19;;;;;;;6.67;1.50;;;9.50;99.90;;;;;;4862261;29;20132;-81
2023/11/20 08:20:45;;;;;;;5.27;1.53;;;9.50;99.90;;;;;;4864338;29;20078;-82
2023/11/20 08:23:10;;;;;;;3.60;1.20;;;9.50;99.90;;;;;;4863080;29;20104;-82
2023/11/20 08:25:36;;;;;;;5.67;1.40;;;9.60;99.90;;;;;;4862734;29;20045;-81
2023/11/20 08:28:01;;;;;;;5.37;1.73;;;9.60;99.90;;;;;;4863726;29;20059;-82
2023/11/20 08:30:27;;;;;;;5.27;1.30;;;9.70;99.90;;;;;;4864204;29;20033;-79
2023/11/20 08:32:53;;;;;;;4.97;1.40;;;9.80;99.90;;;;;;4869342;29;20125;-79
2023/11/20 08:35:20;;;;;;;5.33;1.40;;;9.90;99.90;;;;;;4863840;29;20721;-80
2023/11/20 08:37:46;;;;;;;2.97;1.30;;;10.00;99.90;;;;;;4863188;29;20101;-80
2023/11/20 08:40:14;;;;;;;4.20;1.30;;;10.10;99.90;;;;;;4861904;29;20164;-80
2023/11/20 08:42:40;;;;;;;6.37;1.40;;;10.20;99.90;;;;;;4863071;29;20059;-81
2023/11/20 08:45:07;;;;;;;5.77;1.23;;;10.30;99.90;;;;;;4859951;29;20037;-81
2023/11/20 08:47:35;;;;;;;6.27;1.20;;;10.30;99.90;;;;;;4863129;29;20048;-80
2023/11/20 08:50:02;;;;;;;7.73;1.57;;;10.40;99.90;;;;;;4862699;29;20044;-80
2023/11/20 08:52:28;;;;;;;5.83;1.30;;;10.50;99.90;;;;;;4862522;29;20055;-81
2023/11/20 08:54:55;;;;;;;9.17;1.50;;;10.60;99.90;;;;;;4859925;29;20805;-81
2023/11/20 08:57:22;;;;;;;4.63;1.60;;;10.70;99.90;;;;;;4860800;29;20891;-81
2023/11/20 08:59:48;;;;;;;5.80;1.93;;;10.80;99.90;;;;;;4863666;29;20493;-81
2023/11/20 09:02:13;;;;;;;5.97;1.60;;;10.90;99.90;;;;;;4863855;29;20037;-79
2023/11/20 09:04:39;;;;;;;8.60;1.70;;;10.90;99.90;;;;;;4859137;29;20116;-80
2023/11/20 09:07:05;;;;;;;6.47;1.30;;;11.00;99.90;;;;;;4857435;29;20037;-78
2023/11/20 09:09:31;;;;;;;5.93;1.60;;;11.20;99.90;;;;;;4859328;29;20404;-79
2023/11/20 09:11:57;;;;;;;4.47;1.60;;;11.20;99.90;;;;;;4861599;29;20047;-80
2023/11/20 09:14:22;;;;;;;7.10;2.00;;;11.20;99.90;;;;;;4858386;29;20036;-79
2023/11/20 09:16:48;;;;;;;3.43;1.40;;;11.20;99.90;;;;;;4857578;29;20041;-80
2023/11/20 09:19:13;;;;;;;6.10;1.53;;;11.20;99.90;;;;;;4858492;29;20037;-82
2023/11/20 09:21:39;;;;;;;4.00;1.40;;;11.20;99.90;;;;;;4860335;29;20043;-81
2023/11/20 09:24:05;;;;;;;9.70;1.90;;;11.20;99.90;;;;;;4859841;29;21334;-80
2023/11/20 09:26:31;;;;;;;8.60;1.37;;;11.20;99.90;;;;;;4860041;29;20122;-80
2023/11/20 09:28:56;;;;;;;6.07;1.40;;;11.20;99.90;;;;;;4860837;29;20177;-79
2023/11/20 09:31:22;;;;;;;4.88;1.30;;;11.20;99.90;;;;;;4858989;29;20595;-81
2023/11/20 09:33:49;;;;;;;8.27;1.60;;;11.30;99.90;;;;;;4859158;29;20043;-81
2023/11/20 09:36:14;;;;;;;6.32;1.70;;;11.30;99.90;;;;;;4858170;29;20097;-80
2023/11/20 09:38:40;;;;;;;5.53;1.50;;;11.40;99.90;;;;;;4860678;29;20132;-81
2023/11/20 09:41:07;;;;;;;5.70;1.42;;;11.50;99.90;;;;;;4856866;29;20065;-80
2023/11/20 09:43:34;;;;;;;5.03;1.38;;;11.50;99.90;;;;;;4862005;29;20033;-80
2023/11/20 09:46:06;;;;;;;7.68;1.80;;;11.50;99.90;;;;;;4860409;29;20033;-82
2023/11/20 09:48:33;;;;;;;7.28;1.20;;;11.70;99.90;;;;;;4862329;29;20033;-81
2023/11/20 09:51:00;;;;;;;3.60;1.05;;;11.70;99.90;;;;;;4861922;29;20154;-80
2023/11/20 09:53:33;;;;;;;4.85;1.40;;;11.80;99.90;;;;;;4862898;29;20029;-80
2023/11/20 09:56:05;;;;;;;3.13;1.05;;;11.80;99.90;;;;;;4858490;29;20048;-80
2023/11/20 09:58:31;;;;;;;4.38;1.25;;;11.80;99.90;;;;;;4859442;29;20043;-80
2023/11/20 10:01:10;;;;;;;7.70;1.40;;;11.90;99.90;;;;;;4861604;29;20065;-81
2023/11/20 10:03:40;;;;;;;5.03;1.40;;;11.90;99.90;;;;;;4863325;29;20091;-81
2023/11/20 10:06:12;;;;;;;6.90;1.40;;;11.90;99.90;;;;;;4858787;29;20513;-80
2023/11/20 10:08:40;;;;;;;8.52;1.50;;;11.90;99.90;;;;;;4860819;29;20413;-81
2023/11/20 10:11:07;;;;;;;9.10;1.43;;;11.80;99.90;;;;;;4862079;29;20032;-81
2023/11/20 10:13:34;;;;;;;8.13;1.80;;;11.80;99.90;;;;;;4862269;29;20115;-81
2023/11/20 10:16:00;;;;;;;5.72;1.17;;;11.70;99.90;;;;;;4861865;29;20037;-80
2023/11/20 10:18:26;;;;;;;3.72;1.42;;;11.70;99.90;;;;;;4859934;29;20044;-80
2023/11/20 10:20:52;;;;;;;6.22;1.45;;;11.60;99.90;;;;;;4861062;29;20044;-81
2023/11/20 10:23:19;;;;;;;5.80;1.33;;;11.60;99.90;;;;;;4860473;29;20090;-81
2023/11/20 10:25:45;;;;;;;4.15;1.30;;;11.50;99.90;;;;;;4858425;29;20041;-80
2023/11/20 10:28:14;;;;;;;5.85;1.42;;;11.60;99.90;;;;;;4862436;29;20021;-81
2023/11/20 10:30:43;;;;;;;9.18;1.73;;;11.50;99.90;;;;;;4860556;29;20045;-81
2023/11/20 10:33:20;;;;;;;4.60;1.08;;;11.60;99.90;;;;;;4860601;29;20762;-81
2023/11/20 10:35:47;;;;;;;7.28;1.73;;;11.50;99.90;;;;;;4860147;29;20041;-81
2023/11/20 10:38:13;;;;;;;6.35;1.40;;;11.50;99.90;;;;;;4861363;29;20057;-81
2023/11/20 10:40:41;;;;;;;6.05;1.52;;;11.50;99.90;;;;;;4860589;29;20257;-81
2023/11/20 10:43:07;;;;;;;7.53;2.03;;;11.50;99.90;;;;;;4864646;29;20044;-81
2023/11/20 10:45:33;;;;;;;5.70;1.38;;;11.70;99.90;;;;;;4867850;29;20044;-81
2023/11/20 10:48:00;;;;;;;6.53;1.25;;;11.70;99.90;;;;;;4871273;29;20048;-81
2023/11/20 10:50:31;;;;;;;4.05;1.30;;;11.70;99.90;;;;;;4870465;29;20044;-80
2023/11/20 10:53:08;;;;;;;6.47;1.85;;;11.70;99.90;;;;;;4868337;29;20060;-81
2023/11/20 10:55:54;;;;;;;6.63;1.48;;;11.80;99.90;;;;;;4865752;29;20044;-81
2023/11/20 10:58:20;;;;;;;5.00;1.20;;;11.80;99.90;;;;;;4867794;29;20084;-81
2023/11/20 11:00:47;;;;;;;7.40;1.45;;;11.80;99.90;;;;;;4868082;29;20025;-81
2023/11/20 11:03:15;;;;;;;8.32;1.75;;;11.80;99.90;;;;;;4866599;29;20056;-81
2023/11/20 11:05:43;;;;;;;5.40;1.63;;;11.80;99.90;;;;;;4866465;29;20037;-82
2023/11/20 11:08:11;;;;;;;8.27;1.40;;;11.80;99.90;;;;;;4866253;29;20044;-81
2023/11/20 11:10:41;;;;;;;6.32;1.90;;;11.90;99.90;;;;;;4867540;29;20028;-80
2023/11/20 11:13:10;;;;;;;6.65;1.50;;;11.90;99.90;;;;;;4870468;29;20095;-79
2023/11/20 11:15:40;;;;;;;6.97;1.50;;;12.00;99.90;;;;;;4869796;29;20047;-80
2023/11/20 11:18:12;;;;;;;8.73;1.60;;;12.10;99.90;;;;;;4867897;29;20051;-80
2023/11/20 11:20:52;;;;;;;8.35;1.90;;;12.30;99.90;;;;;;4866936;29;20824;-80
2023/11/20 11:23:35;;;;;;;4.25;1.70;;;12.40;99.90;;;;;;4873167;29;20049;-80
2023/11/20 11:26:21;;;;;;;7.68;1.48;;;12.20;99.90;;;;;;4872274;29;20464;-80
2023/11/20 11:28:55;;;;;;;5.45;1.40;;;12.10;99.90;;;;;;4879509;29;20029;-79
2023/11/20 11:31:22;;;;;;;6.30;1.63;;;12.00;99.90;;;;;;4879136;29;20033;-79
2023/11/20 11:34:18;;;;;;;3.85;1.58;;;11.90;99.90;;;;;;4871360;29;20033;-80
2023/11/20 11:36:50;;;;;;;6.57;1.67;;;11.80;99.90;;;;;;4870456;29;20061;-80
2023/11/20 11:39:26;;;;;;;4.85;1.50;;;11.80;99.90;;;;;;4871350;29;20065;-81
2023/11/20 11:42:09;;;;;;;8.45;1.60;;;11.80;99.90;;;;;;4870230;29;20188;-81
2023/11/20 11:44:55;;;;;;;6.65;1.33;;;11.90;99.90;;;;;;4868004;29;20029;-81
2023/11/20 11:47:22;;;;;;;;;;;12.00;99.90;;;;;;4871979;29;20036;-81
2023/11/20 11:49:48;;;;;;;5.72;1.48;;;12.20;99.90;;;;;;4867281;29;19998;-80
2023/11/20 11:52:17;;;;;;;6.35;1.60;;;12.40;99.90;;;;;;4868351;29;20029;-80
2023/11/20 11:54:43;;;;;;;5.80;1.30;;;12.70;99.90;;;;;;4864179;29;20037;-80
2023/11/20 11:57:20;;;;;;;4.35;1.20;;;12.80;99.90;;;;;;4864591;29;20036;-80
2023/11/20 11:59:46;;;;;;;5.30;1.33;;;12.90;99.90;;;;;;4865848;29;20118;-80
2023/11/20 12:02:18;;;;;;;9.15;2.35;;;13.10;99.90;;;;;;4870196;29;20124;-81
2023/11/20 12:04:49;;;;;;;7.38;1.67;;;13.10;99.90;;;;;;4876333;29;20120;-81
2023/11/20 12:07:47;;;;;;;5.57;1.40;;;13.20;99.90;;;;;;4872528;29;20114;-80
2023/11/20 12:10:14;;;;;;;8.07;1.67;;;13.30;99.90;;;;;;4873050;29;20040;-80
2023/11/20 12:12:48;;;;;;;7.32;1.70;;;13.40;99.90;;;;;;4871193;29;20043;-80
2023/11/20 12:15:37;;;;;;;9.40;1.63;;;13.40;99.90;;;;;;4869920;29;20089;-80
2023/11/20 12:18:23;;;;;;;7.10;1.63;;;13.40;99.90;;;;;;4870798;29;20063;-80
2023/11/20 12:20:52;;;;;;;6.07;1.60;;;13.30;99.90;;;;;;4871218;29;20034;-80
2023/11/20 12:23:32;;;;;;;5.72;1.40;;;13.20;99.90;;;;;;4869987;29;20021;-80
2023/11/20 12:25:59;;;;;;;9.15;1.50;;;13.20;99.90;;;;;;4869914;29;20063;-81
2023/11/20 12:28:27;;;;;;;4.45;1.33;;;13.10;99.90;;;;;;4871899;29;20103;-80
2023/11/20 12:30:56;;;;;;;7.75;1.67;;;12.90;99.90;;;;;;4872434;29;20060;-80
2023/11/20 12:33:23;;;;;;;9.38;1.73;;;12.70;99.90;;;;;;4869387;29;20032;-80
2023/11/20 12:35:53;;;;;;;6.90;1.90;;;12.50;99.90;;;;;;4869508;29;20076;-81
2023/11/20 12:38:19;;;;;;;5.50;1.60;;;12.40;99.90;;;;;;4870638;29;20036;-81
2023/11/20 12:40:53;;;;;;;5.80;1.25;;;12.00;99.90;;;;;;4868251;29;20040;-81
2023/11/20 12:43:19;;;;;;;5.13;1.35;;;11.70;99.90;;;;;;4870744;29;20686;-81
2023/11/20 12:45:45;;;;;;;6.80;1.88;;;11.50;99.90;;;;;;4870590;29;20097;-81
2023/11/20 12:48:11;;;;;;;5.32;1.58;;;11.40;99.90;;;;;;4870605;29;20028;-81
2023/11/20 12:50:37;;;;;;;6.03;1.52;;;11.20;99.90;;;;;;4869381;29;20454;-81
2023/11/20 12:53:03;;;;;;;7.28;2.13;;;11.10;99.90;;;;;;4870407;29;21415;-81